Time;durP1;ratioP1;P1;durP2;ratioP2;P2;SDS_P1;SDS_P2;PMS_P1;PMS_P2;Temp;Humidity;BMP_temperature;BMP_pressure;BME280_temperature;BME280_humidity;BME280_pressure;Samples;Min_cycle;Max_cycle;Signal;HPM_P1;HPM_P2
2021/11/08 00:02:27;;;;;;;19.05;3.72;;;;;;;-146.90;100.00;60518.97;5032403;28;20029;-74
2021/11/08 00:04:52;;;;;;;18.95;3.72;;;;;;;-146.90;100.00;60518.97;5030692;28;20017;-75
2021/11/08 00:07:18;;;;;;;16.23;3.42;;;;;;;-146.90;100.00;60518.97;5032403;28;20390;-75
2021/11/08 00:09:45;;;;;;;20.85;3.67;;;;;;;-146.90;100.00;60518.97;5047933;28;20037;-76
2021/11/08 00:12:12;;;;;;;18.00;3.65;;;;;;;-146.90;100.00;60518.97;5031805;28;20426;-76
2021/11/08 00:14:37;;;;;;;19.77;4.00;;;;;;;-146.90;100.00;60518.97;5032375;28;20127;-76
2021/11/08 00:17:12;;;;;;;18.08;3.55;;;;;;;-146.90;100.00;60518.97;5030006;28;20022;-75
2021/11/08 00:20:01;;;;;;;13.40;3.13;;;;;;;-146.90;100.00;60518.97;5032517;28;20033;-75
2021/11/08 00:22:27;;;;;;;19.52;3.75;;;;;;;-146.90;100.00;60518.97;5032016;28;20037;-74
2021/11/08 00:24:52;;;;;;;15.50;3.20;;;;;;;-146.90;100.00;60518.97;5031209;28;20501;-76
2021/11/08 00:27:19;;;;;;;15.15;3.10;;;;;;;-146.90;100.00;60518.97;5031452;28;20662;-74
2021/11/08 00:29:44;;;;;;;20.92;3.50;;;;;;;-146.90;100.00;60518.97;5032307;28;20025;-75
2021/11/08 00:32:10;;;;;;;15.57;3.50;;;;;;;-146.90;100.00;60518.97;5031798;28;20465;-75
2021/11/08 00:34:35;;;;;;;12.93;3.17;;;;;;;-146.90;100.00;60518.97;5031973;28;20461;-74
2021/11/08 00:37:01;;;;;;;17.00;3.40;;;;;;;-146.90;100.00;60518.97;5029487;28;20035;-75
2021/11/08 00:39:27;;;;;;;19.27;3.65;;;;;;;-146.90;100.00;60518.97;5031419;28;20381;-75
2021/11/08 00:41:52;;;;;;;18.15;3.90;;;;;;;-146.90;100.00;60518.97;5031171;28;20037;-75
2021/11/08 00:44:18;;;;;;;22.00;3.50;;;;;;;-146.90;100.00;60518.97;5032012;28;20022;-75
2021/11/08 00:46:44;;;;;;;14.68;3.38;;;;;;;-146.90;100.00;60518.97;5031785;28;20026;-75
2021/11/08 00:49:10;;;;;;;16.30;2.92;;;;;;;-146.90;100.00;60518.97;5031090;28;20112;-75
2021/11/08 00:51:40;;;;;;;14.43;2.95;;;;;;;-146.90;100.00;60518.97;5032111;28;20028;-75
2021/11/08 00:54:10;;;;;;;15.00;3.20;;;;;;;-146.90;100.00;60518.97;5031337;28;20022;-74
2021/11/08 00:56:35;;;;;;;28.85;5.35;;;;;;;-146.90;100.00;60518.97;5031922;28;20168;-75
2021/11/08 00:59:00;;;;;;;19.42;3.97;;;;;;;-146.90;100.00;60518.97;5029707;28;20108;-75
2021/11/08 01:01:26;;;;;;;16.10;3.40;;;;;;;-146.90;100.00;60518.97;5031515;28;20466;-75
2021/11/08 01:03:52;;;;;;;17.33;3.70;;;;;;;-146.90;100.00;60518.97;5031181;28;20030;-75
2021/11/08 01:06:18;;;;;;;15.65;3.28;;;;;;;-146.90;100.00;60518.97;5031707;28;20025;-74
2021/11/08 01:08:44;;;;;;;15.35;3.38;;;;;;;-146.90;100.00;60518.97;5031143;28;20037;-74
2021/11/08 01:11:10;;;;;;;13.30;3.20;;;;;;;-146.90;100.00;60518.97;5029396;28;20022;-75
2021/11/08 01:13:36;;;;;;;17.52;3.95;;;;;;;-146.90;100.00;60518.97;5031870;28;20102;-75
2021/11/08 01:16:03;;;;;;;16.10;3.72;;;;;;;-146.90;100.00;60518.97;5029590;28;20429;-75
2021/11/08 01:18:29;;;;;;;15.20;3.45;;;;;;;-146.90;100.00;60518.97;5029732;28;20025;-75
2021/11/08 01:20:55;;;;;;;17.85;3.42;;;;;;;-146.90;100.00;60518.97;5029952;28;20056;-75
2021/11/08 01:23:32;;;;;;;16.13;3.25;;;;;;;-146.90;100.00;60518.97;5030086;28;20474;-75
2021/11/08 01:26:03;;;;;;;24.70;4.22;;;;;;;-146.90;100.00;60518.97;5030510;28;20029;-75
2021/11/08 01:28:35;;;;;;;27.08;5.35;;;;;;;-146.90;100.00;60518.97;5030831;28;20024;-75
2021/11/08 01:31:02;;;;;;;27.45;4.88;;;;;;;-146.90;100.00;60518.97;5030189;28;20034;-75
2021/11/08 01:33:29;;;;;;;20.63;4.40;;;;;;;-146.90;100.00;60518.97;5030617;28;20041;-74
2021/11/08 01:38:37;;;;;;;14.65;3.60;;;;;;;-146.90;100.00;60518.97;5030677;28;20427;-75
2021/11/08 01:41:02;;;;;;;12.02;3.15;;;;;;;-146.90;100.00;60518.97;5029911;28;20040;-75
2021/11/08 01:43:28;;;;;;;15.15;3.50;;;;;;;-146.90;100.00;60518.97;5030687;28;20021;-76
2021/11/08 01:45:53;;;;;;;17.85;4.18;;;;;;;-146.90;100.00;60518.97;5030151;28;20113;-76
2021/11/08 01:48:19;;;;;;;13.77;3.35;;;;;;;-146.90;100.00;60518.97;5029747;28;20208;-76
2021/11/08 01:50:45;;;;;;;13.77;3.72;;;;;;;-146.90;100.00;60518.97;5030484;28;20136;-76
2021/11/08 01:53:12;;;;;;;18.77;3.95;;;;;;;-146.90;100.00;60518.97;5030169;28;20576;-76
2021/11/08 01:55:38;;;;;;;18.08;4.03;;;;;;;-146.90;100.00;60518.97;5030520;28;20441;-74
2021/11/08 01:58:03;;;;;;;13.65;3.13;;;;;;;-146.90;100.00;60518.97;5028286;28;20033;-75
2021/11/08 02:00:29;;;;;;;15.20;3.75;;;;;;;-146.90;100.00;60518.97;5028738;28;20087;-75
2021/11/08 02:02:55;;;;;;;13.30;3.55;;;;;;;-146.90;100.00;60518.97;5029606;28;20474;-75
2021/11/08 02:05:21;;;;;;;16.30;4.00;;;;;;;-146.90;100.00;60518.97;5028926;28;20032;-75
2021/11/08 02:07:48;;;;;;;21.05;4.05;;;;;;;-146.90;100.00;60518.97;5029748;28;20026;-77
2021/11/08 02:10:14;;;;;;;16.77;3.88;;;;;;;-146.90;100.00;60518.97;5029989;28;20385;-75
2021/11/08 02:12:41;;;;;;;17.55;4.05;;;;;;;-146.90;100.00;60518.97;5030265;28;20028;-76
2021/11/08 02:15:11;;;;;;;26.38;4.43;;;;;;;-146.90;100.00;60518.97;5028247;28;20595;-75
2021/11/08 02:17:37;;;;;;;16.13;3.75;;;;;;;-146.90;100.00;60518.97;5029918;28;20021;-75
2021/11/08 02:20:14;;;;;;;17.55;3.90;;;;;;;-146.90;100.00;60518.97;5029657;28;20033;-75
2021/11/08 02:22:41;;;;;;;24.85;4.75;;;;;;;-146.90;100.00;60518.97;5029863;28;20025;-74
2021/11/08 02:25:07;;;;;;;15.45;3.90;;;;;;;-146.90;100.00;60518.97;5029544;28;20357;-75
2021/11/08 02:27:33;;;;;;;16.40;4.28;;;;;;;-146.90;100.00;60518.97;5029727;28;20037;-75
2021/11/08 02:29:58;;;;;;;16.95;4.45;;;;;;;-146.90;100.00;60518.97;5028839;28;20380;-75
2021/11/08 02:32:24;;;;;;;18.25;4.65;;;;;;;-146.90;100.00;60518.97;5030292;28;20045;-75
2021/11/08 02:34:49;;;;;;;22.75;4.13;;;;;;;-146.90;100.00;60518.97;5029616;28;20022;-75
2021/11/08 02:37:15;;;;;;;14.68;4.72;;;;;;;-146.90;100.00;60518.97;5029296;28;20034;-75
2021/11/08 02:39:43;;;;;;;18.42;4.25;;;;;;;-146.90;100.00;60518.97;5029673;28;20504;-75
2021/11/08 02:42:09;;;;;;;16.33;3.72;;;;;;;-146.90;100.00;60518.97;5028870;28;20048;-75
2021/11/08 02:44:34;;;;;;;18.45;4.32;;;;;;;-146.90;100.00;60518.97;5029933;28;20463;-75
2021/11/08 02:47:00;;;;;;;24.00;3.72;;;;;;;-146.90;100.00;60518.97;5028785;28;20017;-75
2021/11/08 02:49:28;;;;;;;14.65;3.45;;;;;;;-146.90;100.00;60518.97;5029729;28;20056;-75
2021/11/08 02:52:05;;;;;;;16.30;3.88;;;;;;;-146.90;100.00;60518.97;5028681;28;20037;-76
2021/11/08 02:54:37;;;;;;;15.10;3.13;;;;;;;-146.90;100.00;60518.97;5029494;28;20025;-76
2021/11/08 02:57:05;;;;;;;22.27;3.70;;;;;;;-146.90;100.00;60518.97;5028330;28;20100;-75
2021/11/08 02:59:32;;;;;;;15.25;3.63;;;;;;;-146.90;100.00;60518.97;5029404;28;20022;-74
2021/11/08 03:01:58;;;;;;;14.55;3.22;;;;;;;-146.90;100.00;60518.97;5028613;28;20398;-74
2021/11/08 03:04:28;;;;;;;11.05;3.08;;;;;;;-146.90;100.00;60518.97;5028163;28;20216;-75
2021/11/08 03:06:53;;;;;;;14.80;2.70;;;;;;;-146.90;100.00;60518.97;5028825;28;20033;-75
2021/11/08 03:09:29;;;;;;;18.73;3.33;;;;;;;-146.90;100.00;60518.97;5028408;28;20397;-76
2021/11/08 03:11:55;;;;;;;23.25;4.47;;;;;;;-146.90;100.00;60518.97;5028729;28;20462;-75
2021/11/08 03:14:24;;;;;;;13.32;2.92;;;;;;;-146.90;100.00;60518.97;5029207;28;20021;-75
2021/11/08 03:16:58;;;;;;;16.73;3.95;;;;;;;-146.90;100.00;60518.97;5028649;28;20478;-75
2021/11/08 03:19:26;;;;;;;12.85;2.83;;;;;;;-146.90;100.00;60518.97;5029031;28;20049;-75
2021/11/08 03:21:57;;;;;;;16.45;3.28;;;;;;;-146.90;100.00;60518.97;5028344;28;20090;-75
2021/11/08 03:24:34;;;;;;;14.85;2.90;;;;;;;-146.90;100.00;60518.97;5029188;28;20049;-74
2021/11/08 03:27:04;;;;;;;16.25;3.30;;;;;;;-146.90;100.00;60518.97;5028170;28;20079;-74
2021/11/08 03:29:30;;;;;;;13.75;3.00;;;;;;;-146.90;100.00;60518.97;5027929;28;20025;-75
2021/11/08 03:31:57;;;;;;;15.82;2.95;;;;;;;-146.90;100.00;60518.97;5028900;28;20052;-75
2021/11/08 03:34:22;;;;;;;11.63;2.53;;;;;;;-146.90;100.00;60518.97;5033054;28;20026;-74
2021/11/08 03:36:50;;;;;;;12.70;2.53;;;;;;;-146.90;100.00;60518.97;5032366;28;20078;-74
2021/11/08 03:39:16;;;;;;;15.38;3.78;;;;;;;-146.90;100.00;60518.97;5032787;28;20365;-75
2021/11/08 03:41:42;;;;;;;15.25;3.00;;;;;;;-146.90;100.00;60518.97;5031689;28;20030;-74
2021/11/08 03:44:07;;;;;;;16.38;3.30;;;;;;;-146.90;100.00;60518.97;5032543;28;20129;-75
2021/11/08 03:46:32;;;;;;;15.05;3.22;;;;;;;-146.90;100.00;60518.97;5032893;28;20030;-75
2021/11/08 03:48:58;;;;;;;15.32;3.20;;;;;;;-146.90;100.00;60518.97;5032400;28;20029;-75
2021/11/08 03:51:23;;;;;;;19.35;4.10;;;;;;;-146.90;100.00;60518.97;5033199;28;20033;-75
2021/11/08 03:53:49;;;;;;;15.57;3.03;;;;;;;-146.90;100.00;60518.97;5032466;28;20410;-75
2021/11/08 03:56:14;;;;;;;10.45;2.63;;;;;;;-146.90;100.00;60518.97;5032349;28;20529;-75
2021/11/08 03:58:40;;;;;;;14.30;2.90;;;;;;;-146.90;100.00;60518.97;5032501;28;20474;-75
2021/11/08 04:01:05;;;;;;;12.80;2.95;;;;;;;-146.90;100.00;60518.97;5032455;28;20041;-76
2021/11/08 04:03:32;;;;;;;11.70;2.45;;;;;;;-146.90;100.00;60518.97;5032595;28;20022;-75
2021/11/08 04:05:57;;;;;;;16.65;2.97;;;;;;;-146.90;100.00;60518.97;5047300;28;20041;-75
2021/11/08 04:08:23;;;;;;;11.30;2.60;;;;;;;-146.90;100.00;60518.97;5032212;28;20036;-75
2021/11/08 04:10:52;;;;;;;10.75;2.63;;;;;;;-146.90;100.00;60518.97;5031887;28;20033;-75
2021/11/08 04:13:20;;;;;;;19.80;3.83;;;;;;;-146.90;100.00;60518.97;5032580;28;20033;-75
2021/11/08 04:15:47;;;;;;;13.63;2.70;;;;;;;-146.90;100.00;60518.97;5032014;28;20057;-75
2021/11/08 04:18:16;;;;;;;13.85;3.03;;;;;;;-146.90;100.00;60518.97;5031663;28;20025;-75
2021/11/08 04:20:43;;;;;;;11.57;2.70;;;;;;;-146.90;100.00;60518.97;5030886;28;20026;-75
2021/11/08 04:23:10;;;;;;;17.27;2.70;;;;;;;-146.90;100.00;60518.97;5031742;28;20035;-75
2021/11/08 04:25:35;;;;;;;11.95;2.47;;;;;;;-146.90;100.00;60518.97;5031941;28;20478;-75
2021/11/08 04:28:01;;;;;;;17.13;3.40;;;;;;;-146.90;100.00;60518.97;5031290;28;20125;-75
2021/11/08 04:30:27;;;;;;;9.82;2.08;;;;;;;-146.90;100.00;60518.97;5032064;28;20029;-75
2021/11/08 04:35:37;;;;;;;13.65;2.90;;;;;;;-146.90;100.00;60518.97;5031802;28;20052;-75
2021/11/08 04:53:42;;;;;;;17.55;3.42;;;;;;;-146.90;100.00;60518.97;5031625;28;20049;-75
2021/11/08 04:56:30;;;;;;;19.80;3.08;;;;;;;-146.90;100.00;60518.97;5025260;28;20100;-75
2021/11/08 05:24:10;;;;;;;16.65;3.03;;;;;;;-146.90;100.00;60518.97;4988924;28;20550;-75
2021/11/08 05:31:45;;;;;;;19.05;3.30;;;;;;;-146.90;100.00;60518.97;5030934;28;20030;-75
2021/11/08 05:34:11;;;;;;;21.13;3.63;;;;;;;-146.90;100.00;60518.97;5030466;28;20030;-75
2021/11/08 05:36:36;;;;;;;17.35;3.58;;;;;;;-146.90;100.00;60518.97;5030715;28;20106;-75
2021/11/08 05:39:05;;;;;;;12.43;2.90;;;;;;;-146.90;100.00;60518.97;5029226;28;20108;-74
2021/11/08 05:41:32;;;;;;;15.38;3.20;;;;;;;-146.90;100.00;60518.97;5030477;28;20069;-74
2021/11/08 05:43:57;;;;;;;17.58;4.18;;;;;;;-146.90;100.00;60518.97;5029962;28;20081;-74
2021/11/08 05:46:23;;;;;;;17.70;4.43;;;;;;;-146.90;100.00;60518.97;5030516;28;20025;-75
2021/11/08 05:48:48;;;;;;;20.35;3.28;;;;;;;-146.90;100.00;60518.97;5029403;28;20044;-74
2021/11/08 05:51:14;;;;;;;17.02;3.72;;;;;;;-146.90;100.00;60518.97;5030369;28;20038;-73
2021/11/08 05:53:43;;;;;;;15.15;3.20;;;;;;;-146.90;100.00;60518.97;5030350;28;20497;-74
2021/11/08 05:56:17;;;;;;;13.55;3.17;;;;;;;-146.90;100.00;60518.97;5028040;28;20639;-73
2021/11/08 06:48:16;;;;;;;16.63;3.50;;;;;;;-146.90;100.00;60518.97;5030356;28;20087;-74
2021/11/08 06:50:30;;;;;;;16.35;4.40;;;;;;;-146.90;100.00;60518.97;5027719;28;20030;-74
2021/11/08 06:53:02;;;;;;;25.02;3.97;;;;;;;-146.90;100.00;60518.97;5027277;28;20099;-76
2021/11/08 06:55:27;;;;;;;26.48;3.50;;;;;;;-146.90;100.00;60518.97;5029018;28;20030;-74
2021/11/08 06:58:04;;;;;;;23.52;3.63;;;;;;;-146.90;100.00;60518.97;5026153;28;20036;-75
2021/11/08 07:00:30;;;;;;;23.73;3.75;;;;;;;-146.90;100.00;60518.97;5012331;28;20110;-77
2021/11/08 07:02:57;;;;;;;24.27;3.80;;;;;;;-146.90;100.00;60518.97;5010652;28;20060;-75
2021/11/08 07:05:28;;;;;;;21.92;4.28;;;;;;;-146.90;100.00;60518.97;5027751;28;20025;-76
2021/11/08 07:07:54;;;;;;;21.48;3.95;;;;;;;-146.90;100.00;60518.97;5026708;28;20147;-76
2021/11/08 07:10:29;;;;;;;20.55;3.85;;;;;;;-146.90;100.00;60518.97;5027432;28;20100;-76
2021/11/08 07:12:54;;;;;;;17.05;3.75;;;;;;;-146.90;100.00;60518.97;5028657;28;20116;-76
2021/11/08 07:15:21;;;;;;;18.48;3.95;;;;;;;-146.90;100.00;60518.97;5027603;28;20027;-76
2021/11/08 07:17:49;;;;;;;22.85;4.63;;;;;;;-146.90;100.00;60518.97;5028623;28;20030;-76
2021/11/08 07:20:16;;;;;;;21.80;3.88;;;;;;;-146.90;100.00;60518.97;5027966;28;20030;-77
2021/11/08 07:22:45;;;;;;;28.35;4.50;;;;;;;-146.90;100.00;60518.97;5027563;28;20079;-76
2021/11/08 07:25:10;;;;;;;25.20;4.78;;;;;;;-146.90;100.00;60518.97;5027513;28;20032;-76
2021/11/08 07:27:35;;;;;;;20.70;3.70;;;;;;;-146.90;100.00;60518.97;5025445;28;20029;-76
2021/11/08 07:30:02;;;;;;;15.38;3.72;;;;;;;-146.90;100.00;60518.97;5026485;28;20026;-76
2021/11/08 07:32:27;;;;;;;14.55;3.65;;;;;;;-146.90;100.00;60518.97;5025270;28;20025;-77
2021/11/08 07:34:56;;;;;;;21.45;4.38;;;;;;;-146.90;100.00;60518.97;5025244;28;20071;-81
2021/11/08 07:37:22;;;;;;;15.55;3.78;;;;;;;-146.90;100.00;60518.97;5028002;28;20033;-82
2021/11/08 07:39:48;;;;;;;17.55;3.60;;;;;;;-146.90;100.00;60518.97;5028063;28;20087;-82
2021/11/08 07:42:13;;;;;;;18.00;4.40;;;;;;;-146.90;100.00;60518.97;5028395;28;20029;-82
2021/11/08 07:44:39;;;;;;;15.88;4.15;;;;;;;-146.90;100.00;60518.97;5028735;28;20026;-76
2021/11/08 07:47:04;;;;;;;20.27;4.15;;;;;;;-146.90;100.00;60518.97;5025516;28;20041;-77
2021/11/08 07:49:30;;;;;;;25.40;4.03;;;;;;;-146.90;100.00;60518.97;5026086;28;20069;-78
2021/11/08 07:51:55;;;;;;;30.60;4.53;;;;;;;-146.90;100.00;60518.97;5036381;28;20025;-75
2021/11/08 07:54:21;;;;;;;15.40;3.80;;;;;;;-146.90;100.00;60518.97;5031814;28;20486;-75
2021/11/08 07:56:48;;;;;;;20.30;4.00;;;;;;;-146.90;100.00;60518.97;5026601;28;20032;-76
2021/11/08 07:59:17;;;;;;;22.20;4.70;;;;;;;-146.90;100.00;60518.97;5027600;28;20100;-77
2021/11/08 08:01:43;;;;;;;21.88;3.92;;;;;;;-146.90;100.00;60518.97;5027945;28;20025;-76
2021/11/08 08:04:09;;;;;;;19.27;4.07;;;;;;;-146.90;100.00;60518.97;5027761;28;20484;-76
2021/11/08 08:06:34;;;;;;;21.83;4.43;;;;;;;-146.90;100.00;60518.97;5028642;28;20033;-77
2021/11/08 08:08:59;;;;;;;20.33;4.25;;;;;;;-146.90;100.00;60518.97;5027017;28;20422;-75
2021/11/08 08:11:25;;;;;;;22.52;5.90;;;;;;;-146.90;100.00;60518.97;5027593;28;20478;-76
2021/11/08 08:13:51;;;;;;;25.75;4.82;;;;;;;-146.90;100.00;60518.97;5027568;28;20155;-75
2021/11/08 08:16:18;;;;;;;24.25;4.25;;;;;;;-146.90;100.00;60518.97;5028206;28;20071;-75
2021/11/08 08:18:44;;;;;;;22.13;4.10;;;;;;;-146.90;100.00;60518.97;5039286;28;20036;-77
2021/11/08 08:21:10;;;;;;;19.65;4.50;;;;;;;-146.90;100.00;60518.97;5025725;28;20073;-77
2021/11/08 08:23:36;;;;;;;20.30;4.13;;;;;;;-146.90;100.00;60518.97;5030694;28;20037;-78
2021/11/08 08:26:02;;;;;;;20.35;4.53;;;;;;;-146.90;100.00;60518.97;5036059;28;20021;-76
2021/11/08 08:28:28;;;;;;;20.38;4.13;;;;;;;-146.90;100.00;60518.97;4999960;28;20053;-76
2021/11/08 08:30:54;;;;;;;22.90;5.00;;;;;;;-146.90;100.00;60518.97;5029058;28;20025;-77
2021/11/08 08:33:19;;;;;;;24.35;4.78;;;;;;;-146.90;100.00;60518.97;5043198;28;20076;-76
2021/11/08 08:35:44;;;;;;;17.45;3.70;;;;;;;-146.90;100.00;60518.97;5041494;28;20347;-76
2021/11/08 08:38:13;;;;;;;23.30;4.00;;;;;;;-146.90;100.00;60518.97;5030810;28;20026;-77
2021/11/08 08:40:38;;;;;;;19.05;4.07;;;;;;;-146.90;100.00;60518.97;5040463;28;20128;-76
2021/11/08 08:43:05;;;;;;;21.73;4.18;;;;;;;-146.90;100.00;60518.97;5031705;28;20033;-78
2021/11/08 08:45:31;;;;;;;25.70;4.65;;;;;;;-146.90;100.00;60518.97;5034130;28;20041;-77
2021/11/08 08:47:56;;;;;;;21.42;4.82;;;;;;;-146.90;100.00;60518.97;5028852;28;20089;-79
2021/11/08 08:50:22;;;;;;;23.75;4.25;;;;;;;-146.90;100.00;60518.97;5013026;28;20021;-77
2021/11/08 08:52:48;;;;;;;24.02;4.70;;;;;;;-146.90;100.00;60518.97;5029218;28;20028;-74
2021/11/08 08:55:13;;;;;;;19.75;4.70;;;;;;;-146.90;100.00;60518.97;5037178;28;20029;-77
2021/11/08 08:57:40;;;;;;;20.67;3.95;;;;;;;-146.90;100.00;60518.97;5028192;28;20041;-75
2021/11/08 09:00:09;;;;;;;16.60;3.63;;;;;;;-146.90;100.00;60518.97;5044299;28;20501;-76
2021/11/08 09:02:34;;;;;;;21.15;3.90;;;;;;;-146.90;100.00;60518.97;5050795;28;20037;-77
2021/11/08 09:04:59;;;;;;;18.20;4.00;;;;;;;-146.90;100.00;60518.97;5031236;28;20025;-77
2021/11/08 09:07:25;;;;;;;21.00;4.50;;;;;;;-146.90;100.00;60518.97;5027894;28;20044;-78
2021/11/08 09:09:50;;;;;;;21.10;3.97;;;;;;;-146.90;100.00;60518.97;5045210;28;20027;-76
2021/11/08 09:12:15;;;;;;;21.58;4.50;;;;;;;-146.90;100.00;60518.97;5037753;28;20108;-76
2021/11/08 09:14:41;;;;;;;20.90;4.70;;;;;;;-146.90;100.00;60518.97;5037291;28;20110;-76
2021/11/08 09:17:06;;;;;;;20.92;4.10;;;;;;;-146.90;100.00;60518.97;5028064;28;20296;-76
2021/11/08 09:19:32;;;;;;;19.17;4.20;;;;;;;-146.90;100.00;60518.97;5030915;28;20049;-75
2021/11/08 09:21:57;;;;;;;24.52;4.90;;;;;;;-146.90;100.00;60518.97;5028424;28;20037;-77
2021/11/08 09:24:23;;;;;;;20.05;3.97;;;;;;;-146.90;100.00;60518.97;5032366;28;20474;-76
2021/11/08 09:26:49;;;;;;;21.08;3.92;;;;;;;-146.90;100.00;60518.97;5042023;28;20108;-77
2021/11/08 09:29:18;;;;;;;28.67;5.28;;;;;;;-146.90;100.00;60518.97;5029172;28;20116;-77
2021/11/08 09:31:44;;;;;;;26.30;4.75;;;;;;;-146.90;100.00;60518.97;5016291;28;20025;-80
2021/11/08 09:34:10;;;;;;;22.13;3.65;;;;;;;-146.90;100.00;60518.97;5028974;28;20029;-79
2021/11/08 09:36:39;;;;;;;20.73;4.22;;;;;;;-146.90;100.00;60518.97;5030407;28;20021;-80
2021/11/08 09:39:13;;;;;;;24.38;4.50;;;;;;;-146.90;100.00;60518.97;5028413;28;20044;-81
2021/11/08 09:41:40;;;;;;;16.73;4.18;;;;;;;-146.90;100.00;60518.97;5032973;28;20230;-81
2021/11/08 09:44:07;;;;;;;16.73;4.20;;;;;;;-146.90;100.00;60518.97;5039208;28;20138;-79
2021/11/08 09:46:33;;;;;;;25.75;4.30;;;;;;;-146.90;100.00;60518.97;5030040;28;20022;-81
2021/11/08 09:49:04;;;;;;;23.05;4.80;;;;;;;-146.90;100.00;60518.97;5028851;28;20033;-81
2021/11/08 09:51:34;;;;;;;15.80;3.83;;;;;;;-146.90;100.00;60518.97;5029853;28;20489;-81
2021/11/08 09:54:00;;;;;;;19.23;4.15;;;;;;;-146.90;100.00;60518.97;5029449;28;20013;-80
2021/11/08 09:56:25;;;;;;;24.13;3.95;;;;;;;-146.90;100.00;60518.97;5028787;28;20036;-81
2021/11/08 09:58:56;;;;;;;20.80;4.00;;;;;;;-146.90;100.00;60518.97;5027289;28;20013;-80
2021/11/08 10:01:22;;;;;;;26.55;4.53;;;;;;;-146.90;100.00;60518.97;5028664;28;20040;-81
2021/11/08 10:03:48;;;;;;;23.25;3.92;;;;;;;-146.90;100.00;60518.97;5027766;28;20366;-81
2021/11/08 10:06:13;;;;;;;21.40;4.45;;;;;;;-146.90;100.00;60518.97;5029791;28;20342;-80
2021/11/08 10:08:40;;;;;;;21.67;3.72;;;;;;;-146.90;100.00;60518.97;5029046;28;20036;-80
2021/11/08 10:11:08;;;;;;;22.15;4.07;;;;;;;-146.90;100.00;60518.97;5029330;28;20025;-79
2021/11/08 10:13:35;;;;;;;17.02;3.83;;;;;;;-146.90;100.00;60518.97;5029515;28;20112;-80
2021/11/08 10:16:06;;;;;;;20.92;4.53;;;;;;;-146.90;100.00;60518.97;5028611;28;20431;-80
2021/11/08 10:18:32;;;;;;;23.65;4.00;;;;;;;-146.90;100.00;60518.97;5027628;28;20056;-81
2021/11/08 10:21:10;;;;;;;20.70;4.07;;;;;;;-146.90;100.00;60518.97;5027594;28;20056;-80
2021/11/08 10:23:37;;;;;;;21.63;3.70;;;;;;;-146.90;100.00;60518.97;5029460;28;20029;-80
2021/11/08 10:26:08;;;;;;;16.45;3.42;;;;;;;-146.90;100.00;60518.97;5025964;28;20112;-80
2021/11/08 10:28:33;;;;;;;15.93;3.88;;;;;;;-146.90;100.00;60518.97;5035677;28;20029;-76
2021/11/08 10:31:02;;;;;;;23.83;4.28;;;;;;;-146.90;100.00;60518.97;5033249;28;20432;-76
2021/11/08 10:33:32;;;;;;;17.58;4.10;;;;;;;-146.90;100.00;60518.97;5038310;28;20223;-75
2021/11/08 10:36:02;;;;;;;23.80;4.53;;;;;;;-146.90;100.00;60518.97;5027895;28;20036;-77
2021/11/08 10:38:30;;;;;;;22.65;4.05;;;;;;;-146.90;100.00;60518.97;5024939;28;20053;-77
2021/11/08 10:41:04;;;;;;;15.15;3.67;;;;;;;-146.90;100.00;60518.97;5026279;28;20029;-77
2021/11/08 10:43:31;;;;;;;;;;;;;;;-146.90;100.00;60518.97;5026282;28;20470;-78
2021/11/08 10:46:20;;;;;;;16.48;3.65;;;;;;;-146.90;100.00;60518.97;5026865;28;19908;-76
2021/11/08 10:48:49;;;;;;;22.85;3.70;;;;;;;-146.90;100.00;60518.97;5027568;28;20080;-77
2021/11/08 10:51:16;;;;;;;13.13;3.35;;;;;;;-146.90;100.00;60518.97;5025960;28;20034;-76
2021/11/08 10:54:08;;;;;;;20.80;4.00;;;;;;;-146.90;100.00;60518.97;5029429;28;20107;-78
2021/11/08 10:56:37;;;;;;;16.30;3.70;;;;;;;-146.90;100.00;60518.97;5028027;28;20079;-77
2021/11/08 10:59:08;;;;;;;19.58;3.60;;;;;;;-146.90;100.00;60518.97;5017407;28;20052;-78
2021/11/08 11:01:42;;;;;;;17.20;3.78;;;;;;;-146.90;100.00;60518.97;5027141;28;20033;-76
2021/11/08 11:04:07;;;;;;;25.25;4.40;;;;;;;-146.90;100.00;60518.97;5027630;28;20029;-78
2021/11/08 11:06:45;;;;;;;21.20;4.60;;;;;;;-146.90;100.00;60518.97;5026655;28;20032;-76
2021/11/08 11:09:22;;;;;;;20.30;3.63;;;;;;;-146.90;100.00;60518.97;5026967;28;20025;-78
2021/11/08 11:12:02;;;;;;;22.75;4.45;;;;;;;-146.90;100.00;60518.97;5027715;28;20067;-78
2021/11/08 11:14:45;;;;;;;15.68;3.88;;;;;;;-146.90;100.00;60518.97;5028459;28;20017;-78
2021/11/08 11:17:21;;;;;;;22.08;4.38;;;;;;;-146.90;100.00;60518.97;5026269;28;20121;-77
2021/11/08 11:19:47;;;;;;;20.42;4.25;;;;;;;-146.90;100.00;60518.97;5024659;28;20040;-77
2021/11/08 11:22:19;;;;;;;20.30;4.63;;;;;;;-146.90;100.00;60518.97;5017107;28;20509;-77
2021/11/08 11:24:51;;;;;;;23.95;4.22;;;;;;;-146.90;100.00;60518.97;5013082;28;20029;-76
2021/11/08 11:27:28;;;;;;;15.63;3.97;;;;;;;-146.90;100.00;60518.97;5029902;28;20404;-75
2021/11/08 11:30:18;;;;;;;20.77;3.70;;;;;;;-146.90;100.00;60518.97;5017204;28;20034;-75
2021/11/08 11:32:44;;;;;;;24.00;4.25;;;;;;;-146.90;100.00;60518.97;5027122;28;20040;-75
2021/11/08 11:35:20;;;;;;;21.35;3.92;;;;;;;-146.90;100.00;60518.97;5025974;28;20029;-76
2021/11/08 11:38:02;;;;;;;18.98;3.97;;;;;;;-146.90;100.00;60518.97;5027221;28;20030;-76
2021/11/08 11:40:30;;;;;;;19.15;4.40;;;;;;;-146.90;100.00;60518.97;5026046;28;20026;-77
2021/11/08 11:42:59;;;;;;;16.73;4.20;;;;;;;-146.90;100.00;60518.97;5027678;28;20025;-77
2021/11/08 11:45:25;;;;;;;16.27;3.95;;;;;;;-146.90;100.00;60518.97;5028140;28;20094;-76
2021/11/08 11:48:04;;;;;;;17.55;3.83;;;;;;;-146.90;100.00;60518.97;5026199;28;20021;-78
2021/11/08 11:50:32;;;;;;;18.58;3.70;;;;;;;-146.90;100.00;60518.97;5037889;28;20033;-75
2021/11/08 11:53:00;;;;;;;26.33;5.55;;;;;;;-146.90;100.00;60518.97;5026247;28;20191;-76
2021/11/08 11:55:28;;;;;;;19.90;4.03;;;;;;;-146.90;100.00;60518.97;5030527;28;20168;-76
2021/11/08 11:57:58;;;;;;;17.42;3.83;;;;;;;-146.90;100.00;60518.97;5039706;28;20041;-76
2021/11/08 12:00:29;;;;;;;28.90;4.38;;;;;;;-146.90;100.00;60518.97;5036997;28;20088;-76
2021/11/08 12:02:56;;;;;;;17.73;3.90;;;;;;;-146.90;100.00;60518.97;5036546;28;20044;-77
2021/11/08 12:05:22;;;;;;;19.17;4.45;;;;;;;-146.90;100.00;60518.97;5046467;28;20025;-76
2021/11/08 12:07:56;;;;;;;21.85;4.25;;;;;;;-146.90;100.00;60518.97;5022315;28;20072;-77
2021/11/08 12:10:22;;;;;;;15.55;3.63;;;;;;;-146.90;100.00;60518.97;5030331;28;20020;-77
2021/11/08 12:12:47;;;;;;;26.13;4.38;;;;;;;-146.90;100.00;60518.97;5022170;28;20037;-76
2021/11/08 12:15:16;;;;;;;22.00;4.70;;;;;;;-146.90;100.00;60518.97;5025297;28;20481;-76
2021/11/08 12:17:44;;;;;;;18.25;4.90;;;;;;;-146.90;100.00;60518.97;5030220;28;20026;-75
2021/11/08 12:20:13;;;;;;;19.98;4.50;;;;;;;-146.90;100.00;60518.97;5028360;28;20047;-76
2021/11/08 12:22:39;;;;;;;20.10;4.32;;;;;;;-146.90;100.00;60518.97;5027588;28;20041;-76
2021/11/08 12:25:07;;;;;;;21.13;4.60;;;;;;;-146.90;100.00;60518.97;5028147;28;20095;-76
2021/11/08 12:27:46;;;;;;;18.25;4.65;;;;;;;-146.90;100.00;60518.97;5041701;28;20116;-76
2021/11/08 12:30:15;;;;;;;23.45;4.43;;;;;;;-146.90;100.00;60518.97;5037402;28;20037;-76
2021/11/08 12:33:03;;;;;;;26.60;4.95;;;;;;;-146.90;100.00;60518.97;5034499;28;20037;-75
2021/11/08 12:35:38;;;;;;;16.77;3.95;;;;;;;-146.90;100.00;60518.97;5028244;28;20470;-75
2021/11/08 12:38:24;;;;;;;17.95;4.97;;;;;;;-146.90;100.00;60518.97;5045292;28;20025;-77
2021/11/08 12:41:04;;;;;;;19.88;4.13;;;;;;;-146.90;100.00;60518.97;5020213;28;20026;-79
2021/11/08 12:43:31;;;;;;;23.38;4.97;;;;;;;-146.90;100.00;60518.97;5025162;28;20037;-80
2021/11/08 12:46:12;;;;;;;25.05;4.63;;;;;;;-146.90;100.00;60518.97;5011996;28;20022;-77
2021/11/08 12:48:39;;;;;;;14.77;3.97;;;;;;;-146.90;100.00;60518.97;5019778;28;20045;-75